createdAt,value
2019-05-12T00:01:28.735Z,5.35
2019-05-12T00:03:58.544Z,5.28
2019-05-12T00:06:29.040Z,5.30
2019-05-12T00:08:58.601Z,5.17
2019-05-12T00:11:28.721Z,5.70
2019-05-12T00:13:58.829Z,5.47
2019-05-12T00:16:28.559Z,6.03
2019-05-12T00:18:58.714Z,5.45
2019-05-12T00:21:28.577Z,5.37
2019-05-12T00:24:12.783Z,5.37
2019-05-12T00:26:43.405Z,5.47
2019-05-12T00:29:13.198Z,5.92
2019-05-12T00:31:43.014Z,5.33
2019-05-12T00:34:12.685Z,5.75
2019-05-12T00:36:42.470Z,5.70
2019-05-12T00:39:12.209Z,5.22
2019-05-12T00:41:44.343Z,4.85
2019-05-12T00:44:13.365Z,5.25
2019-05-12T00:46:43.013Z,5.58
2019-05-12T00:49:12.704Z,5.10
2019-05-12T00:51:42.472Z,5.17
2019-05-12T00:54:12.159Z,6.05
2019-05-12T00:56:41.877Z,5.90
2019-05-12T00:59:11.534Z,5.70
2019-05-12T01:01:41.151Z,5.58
2019-05-12T01:04:10.729Z,5.53
2019-05-12T01:06:40.464Z,5.15
2019-05-12T01:09:10.411Z,5.05
2019-05-12T01:11:40.694Z,5.50
2019-05-12T01:14:10.474Z,5.58
2019-05-12T01:16:40.227Z,5.20
2019-05-12T01:19:09.815Z,5.35
2019-05-12T01:21:39.549Z,5.58
2019-05-12T01:24:09.329Z,5.35
2019-05-12T01:26:39.087Z,5.35
2019-05-12T01:29:08.866Z,5.72
2019-05-12T01:31:40.356Z,5.70
2019-05-12T01:34:09.972Z,6.17
2019-05-12T01:36:39.607Z,5.42
2019-05-12T01:39:09.456Z,6.40
2019-05-12T01:41:39.143Z,5.55
2019-05-12T01:44:09.056Z,5.95
2019-05-12T01:46:38.766Z,5.90
2019-05-12T01:49:08.567Z,6.12
2019-05-12T01:51:38.641Z,5.95
2019-05-12T01:54:13.877Z,5.80
2019-05-12T01:56:39.799Z,6.30
2019-05-12T01:59:09.428Z,6.08
2019-05-12T02:01:39.160Z,6.05
2019-05-12T02:04:08.854Z,5.85
2019-05-12T02:06:38.861Z,5.83
2019-05-12T02:09:10.909Z,5.67
2019-05-12T02:11:40.608Z,5.62
2019-05-12T02:14:10.323Z,5.85
2019-05-12T02:16:40.080Z,5.90
2019-05-12T02:19:09.789Z,6.55
2019-05-12T02:21:39.478Z,5.87
2019-05-12T02:24:23.030Z,6.47
2019-05-12T02:26:40.576Z,5.80
2019-05-12T02:29:10.419Z,6.58
2019-05-12T02:31:40.356Z,6.70
2019-05-12T02:34:10.106Z,5.92
2019-05-12T02:36:39.718Z,6.22
2019-05-12T02:39:09.424Z,6.33
2019-05-12T02:41:44.943Z,6.40
2019-05-12T02:44:15.233Z,5.80
2019-05-12T02:46:44.970Z,5.90
2019-05-12T02:49:15.589Z,6.53
2019-05-12T02:51:45.785Z,7.10
2019-05-12T02:54:16.110Z,6.92
2019-05-12T02:56:47.607Z,6.65
2019-05-12T02:59:19.418Z,6.67
2019-05-12T03:01:50.534Z,6.60
2019-05-12T03:04:20.823Z,7.20
2019-05-12T03:06:50.482Z,7.35
2019-05-12T03:09:24.141Z,8.00
2019-05-12T03:14:25.233Z,7.42
2019-05-12T03:16:55.177Z,7.25
2019-05-12T03:19:25.355Z,7.20
2019-05-12T03:21:55.155Z,6.97
2019-05-12T03:24:25.244Z,7.12
2019-05-12T03:26:56.099Z,8.78
2019-05-12T03:29:25.973Z,8.63
2019-05-12T03:31:57.382Z,9.50
2019-05-12T03:34:29.269Z,8.50
2019-05-12T03:36:59.737Z,8.33
2019-05-12T03:39:30.010Z,9.35
2019-05-12T03:42:00.152Z,8.83
2019-05-12T03:44:30.375Z,8.73
2019-05-12T03:47:00.582Z,9.03
2019-05-12T03:49:30.983Z,8.13
2019-05-12T03:52:01.194Z,9.98
2019-05-12T03:54:34.741Z,10.10
2019-05-12T03:57:04.517Z,12.80
2019-05-12T03:59:35.065Z,12.70
2019-05-12T04:02:05.346Z,10.48
2019-05-12T04:04:35.618Z,8.35
2019-05-12T04:07:05.816Z,10.35
2019-05-12T04:09:36.986Z,10.35
2019-05-12T04:12:07.093Z,11.43
2019-05-12T04:14:37.430Z,11.70
2019-05-12T04:17:07.637Z,12.13
2019-05-12T04:19:38.066Z,9.73
2019-05-12T04:22:08.384Z,8.68
2019-05-12T04:24:38.516Z,9.20
2019-05-12T04:27:08.841Z,9.65
2019-05-12T04:29:39.002Z,10.65
2019-05-12T04:32:09.364Z,9.18
2019-05-12T04:34:39.653Z,9.23
2019-05-12T04:37:09.831Z,10.30
2019-05-12T04:39:40.262Z,9.95
2019-05-12T04:42:10.634Z,9.70
2019-05-12T04:44:40.893Z,9.50
2019-05-12T04:47:14.335Z,7.92
2019-05-12T04:49:45.208Z,7.97
2019-05-12T04:52:15.671Z,8.15
2019-05-12T04:54:46.155Z,7.40
2019-05-12T04:57:20.621Z,7.35
2019-05-12T04:59:48.308Z,6.75
2019-05-12T05:02:18.729Z,7.22
2019-05-12T05:04:49.119Z,6.87
2019-05-12T05:07:19.496Z,6.80
2019-05-12T05:09:49.720Z,7.05
2019-05-12T05:12:20.069Z,6.62
2019-05-12T05:14:50.325Z,7.53
2019-05-12T05:17:20.758Z,6.08
2019-05-12T05:19:50.879Z,6.87
2019-05-12T05:22:21.143Z,6.90
2019-05-12T05:24:53.505Z,7.47
2019-05-12T05:27:24.669Z,7.10
2019-05-12T05:29:55.468Z,7.10
2019-05-12T05:32:25.629Z,6.97
2019-05-12T05:34:57.843Z,8.00
2019-05-12T05:37:30.758Z,6.70
2019-05-12T05:39:59.740Z,8.10
2019-05-12T05:42:32.905Z,7.22
2019-05-12T05:47:33.469Z,6.67
2019-05-12T05:50:04.779Z,6.97
2019-05-12T05:52:38.779Z,6.62
2019-05-12T05:55:14.885Z,6.80
2019-05-12T05:57:40.124Z,7.05
2019-05-12T06:00:17.249Z,6.90
2019-05-12T06:02:44.113Z,7.65
2019-05-12T06:05:15.135Z,6.67
2019-05-12T06:07:45.914Z,6.65
2019-05-12T06:10:16.328Z,6.90
2019-05-12T06:12:54.125Z,6.95
2019-05-12T06:15:29.815Z,6.03
2019-05-12T06:18:04.973Z,7.20
2019-05-12T06:20:40.106Z,6.17
2019-05-12T06:23:10.627Z,6.22
2019-05-12T06:25:47.470Z,6.00
2019-05-12T06:28:14.527Z,6.50
2019-05-12T06:30:49.379Z,6.67
2019-05-12T06:33:17.184Z,5.67
2019-05-12T06:35:47.461Z,6.50
2019-05-12T06:38:17.620Z,6.22
2019-05-12T06:40:47.852Z,5.60
2019-05-12T06:43:18.292Z,6.37
2019-05-12T06:45:48.593Z,5.60
2019-05-12T06:48:19.491Z,6.10
2019-05-12T06:50:50.910Z,6.28
2019-05-12T06:53:26.528Z,6.08
2019-05-12T06:55:54.007Z,5.80
2019-05-12T06:58:27.592Z,6.10
2019-05-12T07:00:56.674Z,5.85
2019-05-12T07:03:30.774Z,6.05
2019-05-12T07:05:59.210Z,5.97
2019-05-12T07:08:32.131Z,9.23
2019-05-12T07:11:05.778Z,14.47
2019-05-12T07:13:34.957Z,5.80
2019-05-12T07:16:22.075Z,5.20
2019-05-12T07:18:49.383Z,6.22
2019-05-12T07:21:22.132Z,11.85
2019-05-12T07:23:53.458Z,7.25
2019-05-12T07:26:23.687Z,8.95
2019-05-12T07:28:54.237Z,11.43
2019-05-12T07:31:24.601Z,8.23
2019-05-12T07:33:55.055Z,6.45
2019-05-12T07:36:25.961Z,4.08
2019-05-12T07:39:03.919Z,4.10
2019-05-12T07:41:34.049Z,3.45
2019-05-12T07:44:04.681Z,3.20
2019-05-12T07:46:39.789Z,4.33
2019-05-12T07:51:40.522Z,10.10
2019-05-12T07:54:07.989Z,6.72
2019-05-12T07:56:40.777Z,11.55
2019-05-12T07:59:10.077Z,10.48
2019-05-12T08:01:47.500Z,5.60
2019-05-12T08:04:13.471Z,3.20
2019-05-12T08:06:46.793Z,4.15
2019-05-12T08:09:15.910Z,3.58
2019-05-12T08:11:46.182Z,3.47
2019-05-12T08:14:25.788Z,3.70
2019-05-12T08:16:48.540Z,4.05
2019-05-12T08:19:23.764Z,3.30
2019-05-12T08:21:50.610Z,3.90
2019-05-12T08:24:20.793Z,3.67
2019-05-12T08:26:59.521Z,3.85
2019-05-12T08:29:24.233Z,3.75
2019-05-12T08:31:55.214Z,3.70
2019-05-12T08:34:25.576Z,3.72
2019-05-12T08:36:57.950Z,3.90
2019-05-12T08:39:27.851Z,3.17
2019-05-12T08:41:58.273Z,3.50
2019-05-12T08:44:33.844Z,3.20
2019-05-12T08:47:00.444Z,3.10
2019-05-12T08:49:34.095Z,4.78
2019-05-12T08:52:03.852Z,3.95
2019-05-12T08:54:34.529Z,3.30
2019-05-12T08:57:58.972Z,3.00
2019-05-12T09:00:44.560Z,4.30
2019-05-12T09:03:13.702Z,4.05
2019-05-12T09:08:14.996Z,4.20
2019-05-12T09:10:45.325Z,3.40
2019-05-12T09:13:15.493Z,3.10
2019-05-12T09:15:45.656Z,2.92
2019-05-12T09:18:18.783Z,2.83
2019-05-12T09:20:52.654Z,2.70
2019-05-12T09:23:19.847Z,3.20
2019-05-12T09:25:50.318Z,2.52
2019-05-12T09:28:20.550Z,3.12
2019-05-12T09:30:51.054Z,2.15
2019-05-12T09:33:26.705Z,2.25
2019-05-12T09:35:54.003Z,2.40
2019-05-12T09:38:26.325Z,2.00
2019-05-12T09:41:00.949Z,2.33
2019-05-12T09:43:29.112Z,2.30
2019-05-12T09:45:59.300Z,6.55
2019-05-12T09:48:29.565Z,4.72
2019-05-12T09:51:00.582Z,1.92
2019-05-12T09:53:34.141Z,2.35
2019-05-12T09:56:04.486Z,2.50
2019-05-12T09:58:35.239Z,9.68
2019-05-12T10:01:05.639Z,2.77
2019-05-12T10:03:39.932Z,11.28
2019-05-12T10:08:39.461Z,2.40
2019-05-12T10:11:10.303Z,1.92
2019-05-12T10:16:13.420Z,4.62
2019-05-12T10:18:51.201Z,2.90
2019-05-12T10:23:51.509Z,2.35
2019-05-12T10:26:19.899Z,2.70
2019-05-12T10:28:52.227Z,2.60
2019-05-12T10:31:24.263Z,2.67
2019-05-12T10:33:58.152Z,2.12
2019-05-12T10:36:27.786Z,1.95
2019-05-12T10:38:57.941Z,1.55
2019-05-12T10:41:28.103Z,1.80
2019-05-12T10:43:58.377Z,2.08
2019-05-12T10:46:28.852Z,1.62
2019-05-12T10:48:59.281Z,2.00
2019-05-12T10:51:29.396Z,1.87
2019-05-12T10:54:09.111Z,1.62
2019-05-12T10:59:04.114Z,1.92
2019-05-12T11:01:38.280Z,2.42
2019-05-12T11:04:05.243Z,1.90
2019-05-12T11:06:39.602Z,2.12
2019-05-12T11:09:08.819Z,1.85
2019-05-12T11:11:46.740Z,3.80
2019-05-12T11:14:11.611Z,2.90
2019-05-12T11:16:44.534Z,3.85
2019-05-12T11:19:14.095Z,3.22
2019-05-12T11:21:44.398Z,2.20
2019-05-12T11:24:14.879Z,1.60
2019-05-12T11:26:45.047Z,1.67
2019-05-12T11:29:15.504Z,1.82
2019-05-12T11:31:45.810Z,1.80
2019-05-12T11:34:16.177Z,1.70
2019-05-12T11:36:46.454Z,1.57
2019-05-12T11:39:16.866Z,2.47
2019-05-12T11:41:47.066Z,1.82
2019-05-12T11:44:17.583Z,2.83
2019-05-12T11:46:48.004Z,1.98
2019-05-12T11:49:21.596Z,3.22
2019-05-12T11:51:50.214Z,2.75
2019-05-12T11:54:20.574Z,7.80
2019-05-12T11:56:53.363Z,4.03
2019-05-12T12:01:56.129Z,2.22
2019-05-12T12:06:57.435Z,2.33
2019-05-12T12:09:28.023Z,3.65
2019-05-12T12:12:03.169Z,3.22
2019-05-12T12:14:31.854Z,4.15
2019-05-12T12:17:02.423Z,2.55
2019-05-12T12:19:37.294Z,6.67
2019-05-12T12:22:04.750Z,1.75
2019-05-12T12:24:37.902Z,1.40
2019-05-12T12:27:07.206Z,2.95
2019-05-12T12:29:37.441Z,1.90
2019-05-12T12:32:09.910Z,1.60
2019-05-12T12:34:39.643Z,2.08
2019-05-12T12:37:10.118Z,1.70
2019-05-12T12:39:40.635Z,1.40
2019-05-12T12:42:10.874Z,1.40
2019-05-12T12:44:40.989Z,1.90
2019-05-12T12:47:11.301Z,4.20
2019-05-12T12:49:47.575Z,2.50
2019-05-12T12:52:13.864Z,4.50
2019-05-12T12:54:44.289Z,5.92
2019-05-12T12:57:14.566Z,4.72
2019-05-12T12:59:51.026Z,1.98
2019-05-12T13:02:17.297Z,1.57
2019-05-12T13:04:50.369Z,1.37
2019-05-12T13:09:49.318Z,3.05
2019-05-12T13:12:19.889Z,3.17
2019-05-12T13:14:50.394Z,3.45
2019-05-12T13:17:20.961Z,1.60
2019-05-12T13:19:56.787Z,1.50
2019-05-12T13:22:24.530Z,1.85
2019-05-12T13:24:58.098Z,1.42
2019-05-12T13:30:01.898Z,1.65
2019-05-12T13:32:37.648Z,2.15
2019-05-12T13:35:09.751Z,2.00
2019-05-12T13:37:36.843Z,1.60
2019-05-12T13:40:10.022Z,1.70
2019-05-12T13:42:40.187Z,1.45
2019-05-12T13:45:13.954Z,3.37
2019-05-12T13:47:43.926Z,1.98
2019-05-12T13:50:21.476Z,2.45
2019-05-12T13:55:15.762Z,1.62
2019-05-12T13:57:52.285Z,1.70
2019-05-12T14:00:18.106Z,1.40
2019-05-12T14:02:49.044Z,1.30
2019-05-12T14:05:19.627Z,2.00
2019-05-12T14:07:54.927Z,2.27
2019-05-12T14:10:24.316Z,8.88
2019-05-12T14:12:54.412Z,6.62
2019-05-12T14:15:25.178Z,4.45
2019-05-12T14:17:55.711Z,3.42
2019-05-12T14:20:25.930Z,3.15
2019-05-12T14:22:56.106Z,11.45
2019-05-12T14:25:31.002Z,4.28
2019-05-12T14:27:59.424Z,2.35
2019-05-12T14:32:59.641Z,1.20
2019-05-12T14:35:32.420Z,1.62
2019-05-12T14:38:03.833Z,1.92
2019-05-12T14:40:34.881Z,3.75
2019-05-12T14:43:10.280Z,5.65
2019-05-12T14:48:09.273Z,1.60
2019-05-12T14:50:38.801Z,1.85
2019-05-12T14:53:08.829Z,7.03
2019-05-12T14:55:39.119Z,17.02
2019-05-12T14:58:14.857Z,13.83
2019-05-12T15:00:41.018Z,2.60
2019-05-12T15:03:13.839Z,5.17
2019-05-12T15:08:21.131Z,7.70
2019-05-12T15:13:17.314Z,1.20
2019-05-12T15:15:50.033Z,0.90
2019-05-12T15:20:51.428Z,1.10
2019-05-12T15:23:23.964Z,1.22
2019-05-12T15:28:24.443Z,10.93
2019-05-12T15:30:54.725Z,12.70
2019-05-12T15:33:26.637Z,9.85
2019-05-12T15:38:25.841Z,11.55
2019-05-12T15:40:56.054Z,3.65
2019-05-12T15:43:26.349Z,5.97
2019-05-12T15:45:59.429Z,1.20
2019-05-12T15:48:28.469Z,4.15
2019-05-12T15:50:59.406Z,7.05
2019-05-12T15:56:05.710Z,4.05
2019-05-12T15:58:33.563Z,3.30
2019-05-12T16:01:06.021Z,1.12
2019-05-12T16:03:36.025Z,2.12
2019-05-12T16:06:10.060Z,1.70
2019-05-12T16:08:38.146Z,1.12
2019-05-12T16:11:08.246Z,0.90
2019-05-12T16:13:38.645Z,0.75
2019-05-12T16:16:08.837Z,0.88
2019-05-12T16:18:40.578Z,1.52
2019-05-12T16:23:40.251Z,3.75
2019-05-12T16:26:12.490Z,2.83
2019-05-12T16:28:44.146Z,2.35
2019-05-12T16:31:16.102Z,2.62
2019-05-12T16:33:46.317Z,1.12
2019-05-12T16:36:16.470Z,1.57
2019-05-12T16:38:50.122Z,7.05
2019-05-12T16:43:49.731Z,1.72
2019-05-12T16:46:19.875Z,2.60
2019-05-12T16:48:54.561Z,0.98
2019-05-12T16:51:23.781Z,1.10
2019-05-12T16:53:54.704Z,1.60
2019-05-12T16:56:29.513Z,0.98
2019-05-12T16:58:57.852Z,1.00
2019-05-12T17:01:29.471Z,1.20
2019-05-12T17:04:00.066Z,2.20
2019-05-12T17:06:34.981Z,1.30
2019-05-12T17:09:03.376Z,1.20
2019-05-12T17:11:37.312Z,1.30
2019-05-12T17:14:05.444Z,0.80
2019-05-12T17:16:42.090Z,1.40
2019-05-12T17:19:10.400Z,1.87
2019-05-12T17:21:39.667Z,2.20
2019-05-12T17:24:10.031Z,1.65
2019-05-12T17:26:40.369Z,1.30
2019-05-12T17:29:10.763Z,1.20
2019-05-12T17:31:41.282Z,2.37
2019-05-12T17:34:11.592Z,2.33
2019-05-12T17:36:44.826Z,1.75
2019-05-12T17:39:18.315Z,2.12
2019-05-12T17:41:48.984Z,1.90
2019-05-12T17:44:19.361Z,1.72
2019-05-12T17:46:49.666Z,1.32
2019-05-12T17:49:29.408Z,1.20
2019-05-12T17:51:53.461Z,1.00
2019-05-12T17:54:26.469Z,0.70
2019-05-12T17:56:56.846Z,0.82
2019-05-12T17:59:29.146Z,1.00
2019-05-12T18:04:31.058Z,0.70
2019-05-12T18:09:32.565Z,1.20
2019-05-12T18:12:04.278Z,0.88
2019-05-12T18:17:08.642Z,1.30
2019-05-12T18:22:09.593Z,2.10
2019-05-12T18:24:40.944Z,2.55
2019-05-12T18:29:44.207Z,2.40
2019-05-12T18:32:14.784Z,2.47
2019-05-12T18:34:44.979Z,2.60
2019-05-12T18:37:15.387Z,2.00
2019-05-12T18:39:45.724Z,2.83
2019-05-12T18:42:16.140Z,4.15
2019-05-12T18:44:46.435Z,2.70
2019-05-12T18:47:22.372Z,2.60
2019-05-12T18:52:19.590Z,2.55
2019-05-12T18:54:52.422Z,3.77
2019-05-12T18:57:23.857Z,3.50
2019-05-12T18:59:55.118Z,2.62
2019-05-12T19:02:28.471Z,2.45
2019-05-12T19:04:57.430Z,2.75
2019-05-12T19:07:39.291Z,3.37
2019-05-12T19:09:59.915Z,3.55
2019-05-12T19:12:32.470Z,3.58
2019-05-12T19:15:04.414Z,3.40
2019-05-12T19:17:34.071Z,2.42
2019-05-12T19:20:07.728Z,2.65
2019-05-12T19:22:39.435Z,2.70
2019-05-12T19:25:14.694Z,1.77
2019-05-12T19:27:47.012Z,1.92
2019-05-12T19:30:19.594Z,1.60
2019-05-12T19:32:51.830Z,1.50
2019-05-12T19:35:23.424Z,1.40
2019-05-12T19:37:54.027Z,1.75
2019-05-12T19:40:24.360Z,1.65
2019-05-12T19:43:01.826Z,1.85
2019-05-12T19:45:25.988Z,2.62
2019-05-12T19:47:55.809Z,2.67
2019-05-12T19:50:25.551Z,3.00
2019-05-12T19:52:55.476Z,3.77
2019-05-12T19:55:26.913Z,3.67
2019-05-12T19:57:56.521Z,3.45
2019-05-12T20:00:26.416Z,3.80
2019-05-12T20:02:56.135Z,3.45
2019-05-12T20:05:25.762Z,2.27
2019-05-12T20:07:55.380Z,2.60
2019-05-12T20:10:25.112Z,2.65
2019-05-12T20:12:57.053Z,2.15
2019-05-12T20:15:30.138Z,2.60
2019-05-12T20:17:57.600Z,2.42
2019-05-12T20:20:36.709Z,1.70
2019-05-12T20:22:58.897Z,1.50
2019-05-12T20:26:23.724Z,1.50
2019-05-12T20:28:55.530Z,1.17
2019-05-12T20:31:27.305Z,1.60
2019-05-12T20:34:04.197Z,1.65
2019-05-12T20:36:28.696Z,2.08
2019-05-12T20:38:58.409Z,2.80
2019-05-12T20:41:28.409Z,3.60
2019-05-12T20:43:58.325Z,2.62
2019-05-12T20:46:27.893Z,2.60
2019-05-12T20:49:01.204Z,2.52
2019-05-12T20:51:29.306Z,2.62
2019-05-12T20:53:59.248Z,2.55
2019-05-12T20:56:29.137Z,2.52
2019-05-12T20:58:58.874Z,1.98
2019-05-12T21:01:30.252Z,2.52
2019-05-12T21:03:59.920Z,3.95
2019-05-12T21:06:33.129Z,3.37
2019-05-12T21:09:03.348Z,5.58
2019-05-12T21:11:33.824Z,4.85
2019-05-12T21:14:09.806Z,4.75
2019-05-12T21:16:38.853Z,4.62
2019-05-12T21:19:10.975Z,4.58
2019-05-12T21:21:38.660Z,3.80
2019-05-12T21:24:08.574Z,4.20
2019-05-12T21:26:38.276Z,4.45
2019-05-12T21:29:07.821Z,5.67
2019-05-12T21:31:37.853Z,4.90
2019-05-12T21:34:15.103Z,5.80
2019-05-12T21:36:38.860Z,5.60
2019-05-12T21:39:10.425Z,4.95
2019-05-12T21:41:40.669Z,3.75
2019-05-12T21:44:14.113Z,4.58
2019-05-12T21:46:52.736Z,3.80
2019-05-12T21:49:15.795Z,3.30
2019-05-12T21:51:50.552Z,3.00
2019-05-12T21:54:17.146Z,3.33
2019-05-12T21:56:49.363Z,3.30
2019-05-12T21:59:18.945Z,3.58
2019-05-12T22:01:49.710Z,3.47
2019-05-12T22:04:19.833Z,4.05
2019-05-12T22:06:51.225Z,3.60
2019-05-12T22:09:23.887Z,3.50
2019-05-12T22:11:54.164Z,3.00
2019-05-12T22:14:25.158Z,3.42
2019-05-12T22:16:56.842Z,3.67
2019-05-12T22:19:30.837Z,3.90
2019-05-12T22:22:00.889Z,3.95
2019-05-12T22:24:34.603Z,4.22
2019-05-12T22:27:02.729Z,4.37
2019-05-12T22:29:34.261Z,3.12
2019-05-12T22:32:05.036Z,2.90
2019-05-12T22:34:40.334Z,2.50
2019-05-12T22:37:06.859Z,2.15
2019-05-12T22:39:36.559Z,2.83
2019-05-12T22:42:06.144Z,2.33
2019-05-12T22:44:35.766Z,2.52
2019-05-12T22:47:12.671Z,2.60
2019-05-12T22:49:36.845Z,2.70
2019-05-12T22:52:07.275Z,2.35
2019-05-12T22:54:40.443Z,2.08
2019-05-12T22:57:08.526Z,2.25
2019-05-12T22:59:40.270Z,2.00
2019-05-12T23:02:09.554Z,2.00
2019-05-12T23:04:40.356Z,1.70
2019-05-12T23:07:10.239Z,1.73
2019-05-12T23:09:39.947Z,1.85
2019-05-12T23:12:14.958Z,1.72
2019-05-12T23:14:41.110Z,1.90
2019-05-12T23:17:11.049Z,1.45
2019-05-12T23:19:43.030Z,1.70
2019-05-12T23:22:14.200Z,2.10
2019-05-12T23:24:44.236Z,1.60
2019-05-12T23:27:13.931Z,1.90
2019-05-12T23:29:44.361Z,1.70
2019-05-12T23:32:15.104Z,2.00
2019-05-12T23:34:56.500Z,1.70
2019-05-12T23:37:16.440Z,1.67
2019-05-12T23:39:46.081Z,1.50
2019-05-12T23:42:15.688Z,1.60
2019-05-12T23:44:46.912Z,2.08
2019-05-12T23:47:16.637Z,1.80
2019-05-12T23:49:46.324Z,1.80
2019-05-12T23:52:15.859Z,1.95
2019-05-12T23:54:45.639Z,1.80
2019-05-12T23:57:15.715Z,1.82
2019-05-12T23:59:45.529Z,1.92
